Date,TemperatureHighF,TemperatureAvgF,TemperatureLowF,DewpointHighF,DewpointAvgF,DewpointLowF,HumidityHigh,HumidityAvg,HumidityLow,PressureMaxIn,PressureMinIn,WindSpeedMaxMPH,WindSpeedAvgMPH,GustSpeedMaxMPH,PrecipitationSumIn
2013-9-2,72,67,60,58,56,52,77,67,58,29.90,29.86,43,2,64,7.23
2013-9-3,68,64,59,62,57,53,87,78,66,30.03,29.89,15,0,50,8.52
2013-9-4,71,61,59,62,55,53,85,81,71,30.05,30.01,112,11,113,0.08
2013-9-5,66,62,59,62,57,54,90,85,81,30.05,29.90,87,23,87,1.96
2013-9-6,67,62,57,62,57,52,90,85,80,30.07,29.90,6,0,90,0.51
2013-9-7,68,62,59,61,57,55,88,84,77,30.08,30.03,10,0,12,0.22
2013-9-8,73,66,59,61,57,53,85,74,61,30.09,30.01,31,1,52,3.47
2013-9-9,74,66,60,61,57,53,84,74,63,30.06,29.97,54,1,58,0.26
2013-9-10,77,67,59,60,56,53,85,69,55,30.00,29.91,24,3,43,15.49
2013-9-11,89,75,64,60,56,52,66,52,36,29.96,29.89,22,2,79,67.53
2013-9-12,82,74,68,61,55,52,62,53,45,29.97,29.87,9,2,20,0.00
2013-9-13,75,66,59,60,56,52,82,71,58,29.94,29.83,9,1,57,3.93
2013-9-14,67,61,56,58,54,51,86,79,71,29.87,29.74,43,0,58,0.65
2013-9-15,62,59,58,58,55,52,88,84,79,29.77,29.66,71,6,71,1.53
2013-9-16,67,60,56,58,53,46,85,76,58,29.91,29.75,58,5,58,66.59
2013-9-17,66,58,53,52,49,46,80,73,59,29.91,29.83,14,3,50,29.48
2013-9-18,70,60,53,53,49,47,82,68,49,30.05,29.90,9,2,13,3.48
2013-9-19,71,62,54,51,48,9,77,62,15,30.02,29.74,6,0,10,0.00
2013-9-27,54,52,50,50,47,45,88,85,72,30.01,29.78,16,0,43,0.59
2013-9-28,52,50,49,50,47,46,91,90,86,29.79,29.26,18,2,36,12.44
2013-9-29,52,49,47,50,46,3,92,91,15,29.47,29.02,22,3,37,29.67
2013-9-30,48,47,46,45,43,42,90,87,84,29.58,29.29,11,2,17,19.46